createdAt,value
2022-11-23T00:01:21.485Z,2.70
2022-11-23T00:03:50.403Z,2.33
2022-11-23T00:06:18.128Z,2.03
2022-11-23T00:08:45.275Z,2.53
2022-11-23T00:11:12.577Z,2.33
2022-11-23T00:13:40.770Z,2.20
2022-11-23T00:16:08.660Z,2.27
2022-11-23T00:18:36.831Z,2.07
2022-11-23T00:21:07.137Z,2.30
2022-11-23T00:23:34.170Z,2.07
2022-11-23T00:26:01.159Z,1.90
2022-11-23T00:28:28.171Z,2.37
2022-11-23T00:30:55.068Z,2.20
2022-11-23T00:33:21.999Z,2.17
2022-11-23T00:35:59.278Z,2.50
2022-11-23T00:38:26.580Z,1.53
2022-11-23T00:40:59.584Z,2.20
2022-11-23T00:43:26.542Z,2.23
2022-11-23T00:46:14.465Z,1.87
2022-11-23T00:48:41.566Z,1.90
2022-11-23T00:51:12.754Z,1.93
2022-11-23T00:53:39.714Z,2.63
2022-11-23T00:56:07.409Z,2.27
2022-11-23T00:58:34.777Z,2.70
2022-11-23T01:01:04.345Z,2.53
2022-11-23T01:03:31.472Z,3.00
2022-11-23T01:06:03.420Z,2.60
2022-11-23T01:08:31.835Z,1.90
2022-11-23T01:11:00.445Z,2.97
2022-11-23T01:13:27.808Z,2.47
2022-11-23T01:15:54.944Z,2.50
2022-11-23T01:18:21.945Z,2.03
2022-11-23T01:20:48.790Z,2.40
2022-11-23T01:23:15.649Z,2.70
2022-11-23T01:25:43.933Z,2.60
2022-11-23T01:28:10.796Z,2.10
2022-11-23T01:30:37.809Z,2.07
2022-11-23T01:33:05.146Z,2.50
2022-11-23T01:35:32.110Z,2.00
2022-11-23T01:37:59.000Z,2.17
2022-11-23T01:40:25.912Z,2.53
2022-11-23T01:42:57.335Z,2.00
2022-11-23T01:45:55.496Z,2.10
2022-11-23T01:48:26.795Z,2.30
2022-11-23T01:50:56.343Z,1.97
2022-11-23T01:53:23.403Z,2.30
2022-11-23T01:55:51.875Z,2.33
2022-11-23T01:58:24.861Z,2.30
2022-11-23T02:00:51.813Z,2.57
2022-11-23T02:03:19.843Z,1.87
2022-11-23T02:05:50.020Z,2.10
2022-11-23T02:08:20.048Z,3.07
2022-11-23T02:10:47.832Z,2.27
2022-11-23T02:13:15.611Z,2.00
2022-11-23T02:15:43.880Z,2.27
2022-11-23T02:18:15.371Z,2.60
2022-11-23T02:20:44.348Z,2.30
2022-11-23T02:23:18.244Z,2.50
2022-11-23T02:25:58.268Z,2.30
2022-11-23T02:28:29.093Z,2.20
2022-11-23T02:30:56.323Z,2.27
2022-11-23T02:33:23.266Z,1.53
2022-11-23T02:35:51.701Z,2.30
2022-11-23T02:38:19.589Z,1.97
2022-11-23T02:40:46.826Z,1.90
2022-11-23T02:43:15.247Z,2.00
2022-11-23T02:45:49.729Z,2.63
2022-11-23T02:48:16.871Z,1.87
2022-11-23T02:50:43.834Z,2.33
2022-11-23T02:53:11.303Z,1.93
2022-11-23T02:55:38.442Z,2.23
2022-11-23T02:58:06.190Z,2.00
2022-11-23T03:00:35.193Z,2.10
2022-11-23T03:03:03.267Z,2.40
2022-11-23T03:05:30.508Z,2.63
2022-11-23T03:07:57.908Z,1.97
2022-11-23T03:10:24.712Z,1.70
2022-11-23T03:12:54.374Z,2.50
2022-11-23T03:15:21.408Z,2.90
2022-11-23T03:17:49.616Z,1.90
2022-11-23T03:20:16.674Z,2.10
2022-11-23T03:22:43.632Z,2.30
2022-11-23T03:25:10.738Z,2.10
2022-11-23T03:27:38.331Z,2.37
2022-11-23T03:30:07.268Z,2.07
2022-11-23T03:32:34.389Z,1.90
2022-11-23T03:35:03.143Z,1.80
2022-11-23T03:37:30.248Z,2.17
2022-11-23T03:39:57.063Z,2.10
2022-11-23T03:42:23.898Z,2.57
2022-11-23T03:44:50.994Z,1.80
2022-11-23T03:47:17.949Z,2.00
2022-11-23T03:49:44.835Z,2.50
2022-11-23T03:52:13.857Z,2.40
2022-11-23T03:54:40.739Z,2.00
2022-11-23T03:57:07.725Z,2.20
2022-11-23T03:59:34.781Z,1.93
2022-11-23T04:02:01.744Z,2.00
2022-11-23T04:04:28.575Z,2.00
2022-11-23T04:06:55.513Z,1.87
2022-11-23T04:09:23.888Z,2.07
2022-11-23T04:11:50.941Z,2.33
2022-11-23T04:14:17.941Z,1.90
2022-11-23T04:16:44.989Z,2.30
2022-11-23T04:19:11.836Z,2.27
2022-11-23T04:21:38.613Z,2.17
2022-11-23T04:24:06.049Z,2.00
2022-11-23T04:26:34.229Z,2.10
2022-11-23T04:29:01.158Z,1.83
2022-11-23T04:31:28.115Z,2.20
2022-11-23T04:33:55.859Z,2.27
2022-11-23T04:36:22.805Z,2.30
2022-11-23T04:38:49.840Z,2.20
2022-11-23T04:41:16.789Z,2.20
2022-11-23T04:43:47.213Z,2.10
2022-11-23T04:46:14.189Z,2.17
2022-11-23T04:48:41.145Z,2.10
2022-11-23T04:51:08.016Z,2.50
2022-11-23T04:53:34.938Z,1.83
2022-11-23T04:56:02.063Z,2.37
2022-11-23T04:58:31.601Z,2.27
2022-11-23T05:01:03.237Z,2.23
2022-11-23T05:03:31.178Z,1.93
2022-11-23T05:05:58.639Z,1.83
2022-11-23T05:08:25.524Z,2.27
2022-11-23T05:10:52.385Z,2.23
2022-11-23T05:13:19.448Z,2.50
2022-11-23T05:15:46.320Z,2.50
2022-11-23T05:18:14.568Z,2.80
2022-11-23T05:20:41.900Z,2.40
2022-11-23T05:23:09.865Z,2.20
2022-11-23T05:25:36.709Z,2.43
2022-11-23T05:28:11.360Z,1.87
2022-11-23T05:30:44.042Z,2.20
2022-11-23T05:33:10.994Z,2.47
2022-11-23T05:35:39.449Z,2.30
2022-11-23T05:38:06.628Z,2.40
2022-11-23T05:40:33.578Z,2.70
2022-11-23T05:43:00.454Z,2.10
2022-11-23T05:45:27.829Z,2.07
2022-11-23T05:47:56.527Z,1.90
2022-11-23T05:50:24.832Z,1.80
2022-11-23T05:52:53.185Z,2.27
2022-11-23T05:55:20.920Z,2.13
2022-11-23T05:57:47.745Z,2.27
2022-11-23T06:00:15.667Z,2.43
2022-11-23T06:02:42.579Z,1.93
2022-11-23T06:05:10.060Z,2.30
2022-11-23T06:07:37.113Z,2.37
2022-11-23T06:10:07.830Z,2.27
2022-11-23T06:12:34.732Z,2.40
2022-11-23T06:15:01.670Z,2.37
2022-11-23T06:17:28.648Z,2.10
2022-11-23T06:19:55.565Z,2.33
2022-11-23T06:22:22.471Z,1.93
2022-11-23T06:24:49.332Z,2.20
2022-11-23T06:27:18.311Z,2.13
2022-11-23T06:29:46.932Z,2.90
2022-11-23T06:32:13.895Z,2.60
2022-11-23T06:34:40.736Z,2.40
2022-11-23T06:37:07.671Z,2.27
2022-11-23T06:39:34.917Z,2.27
2022-11-23T06:42:16.771Z,2.17
2022-11-23T06:44:50.265Z,2.40
2022-11-23T06:47:19.847Z,3.17
2022-11-23T06:49:48.836Z,2.27
2022-11-23T06:52:15.912Z,2.10
2022-11-23T06:54:42.774Z,2.33
2022-11-23T06:57:10.160Z,2.07
2022-11-23T06:59:40.670Z,2.47
2022-11-23T07:02:13.070Z,2.27
2022-11-23T07:04:39.967Z,1.70
2022-11-23T07:07:08.327Z,2.77
2022-11-23T07:09:35.481Z,2.60
2022-11-23T07:12:02.655Z,12.67
2022-11-23T07:14:29.661Z,3.20
2022-11-23T07:16:56.654Z,2.30
2022-11-23T07:19:24.945Z,2.23
2022-11-23T07:21:51.838Z,2.67
2022-11-23T07:24:18.725Z,2.20
2022-11-23T07:26:45.612Z,1.93
2022-11-23T07:29:12.635Z,3.20
2022-11-23T07:31:39.551Z,2.60
2022-11-23T07:34:06.560Z,2.90
2022-11-23T07:36:34.829Z,2.70
2022-11-23T07:39:01.769Z,2.57
2022-11-23T07:41:28.717Z,2.80
2022-11-23T07:43:55.690Z,2.60
2022-11-23T07:46:22.686Z,2.70
2022-11-23T07:48:50.652Z,2.50
2022-11-23T07:51:19.621Z,2.30
2022-11-23T07:53:47.994Z,2.57
2022-11-23T07:56:14.814Z,2.80
2022-11-23T07:58:41.698Z,2.70
2022-11-23T08:01:08.657Z,2.60
2022-11-23T08:03:35.807Z,2.60
2022-11-23T08:06:03.077Z,3.07
2022-11-23T08:08:30.531Z,2.47
2022-11-23T08:10:59.050Z,3.03
2022-11-23T08:13:26.041Z,2.30
2022-11-23T08:15:55.828Z,2.10
2022-11-23T08:18:24.100Z,2.27
2022-11-23T08:20:52.550Z,2.53
2022-11-23T08:23:21.153Z,2.07
2022-11-23T08:25:49.190Z,2.43
2022-11-23T08:28:18.044Z,2.27
2022-11-23T08:30:45.458Z,2.23
2022-11-23T08:33:13.738Z,2.60
2022-11-23T08:35:42.142Z,2.40
2022-11-23T08:38:12.522Z,3.00
2022-11-23T08:40:41.258Z,1.97
2022-11-23T08:43:08.353Z,2.10
2022-11-23T08:45:38.916Z,2.47
2022-11-23T08:48:06.918Z,2.60
2022-11-23T08:50:35.200Z,2.47
2022-11-23T08:53:02.093Z,2.40
2022-11-23T08:55:29.991Z,2.13
2022-11-23T08:57:57.494Z,2.83
2022-11-23T09:00:25.347Z,2.83
2022-11-23T09:02:53.736Z,2.90
2022-11-23T09:05:20.701Z,2.90
2022-11-23T09:07:47.858Z,3.17
2022-11-23T09:10:18.566Z,3.20
2022-11-23T09:12:46.239Z,2.63
2022-11-23T09:15:13.274Z,3.00
2022-11-23T09:17:40.336Z,2.30
2022-11-23T09:20:13.890Z,3.00
2022-11-23T09:22:40.898Z,2.30
2022-11-23T09:25:09.031Z,2.63
2022-11-23T09:27:36.684Z,2.20
2022-11-23T09:30:04.912Z,1.80
2022-11-23T09:32:33.794Z,1.83
2022-11-23T09:35:01.573Z,2.47
2022-11-23T09:37:30.853Z,2.00
2022-11-23T09:39:59.558Z,3.10
2022-11-23T09:42:55.022Z,2.77
2022-11-23T09:45:31.037Z,2.67
2022-11-23T09:48:15.919Z,2.10
2022-11-23T09:50:47.787Z,2.33
2022-11-23T09:53:20.023Z,1.83
2022-11-23T09:55:51.133Z,1.90
2022-11-23T09:58:20.314Z,1.90
2022-11-23T10:00:51.538Z,1.37
2022-11-23T10:03:19.389Z,1.60
2022-11-23T10:05:55.192Z,2.03
2022-11-23T10:08:33.301Z,1.87
2022-11-23T10:11:12.373Z,2.00
2022-11-23T10:13:45.067Z,1.80
2022-11-23T10:16:29.769Z,1.67
2022-11-23T10:19:03.720Z,1.97
2022-11-23T10:21:41.721Z,1.80
2022-11-23T10:24:19.925Z,1.93
2022-11-23T10:26:49.845Z,2.07
2022-11-23T10:29:25.412Z,2.00
2022-11-23T10:31:57.017Z,1.60
2022-11-23T10:34:37.562Z,2.87
2022-11-23T10:37:10.127Z,1.83
2022-11-23T10:39:38.517Z,2.80
2022-11-23T10:42:18.252Z,2.27
2022-11-23T10:44:47.316Z,1.80
2022-11-23T10:47:34.940Z,2.33
2022-11-23T10:50:01.931Z,1.73
2022-11-23T10:52:30.603Z,1.67
2022-11-23T10:55:01.585Z,2.13
2022-11-23T10:57:37.045Z,1.83
2022-11-23T11:00:16.557Z,1.50
2022-11-23T11:02:45.987Z,1.30
2022-11-23T11:05:39.957Z,1.93
2022-11-23T11:08:14.995Z,1.50
2022-11-23T11:10:45.575Z,1.73
2022-11-23T11:13:27.278Z,1.40
2022-11-23T11:15:57.551Z,1.70
2022-11-23T11:18:28.817Z,1.50
2022-11-23T11:21:02.643Z,1.97
2022-11-23T11:23:31.920Z,1.47
2022-11-23T11:26:21.199Z,1.60
2022-11-23T11:28:52.111Z,1.40
2022-11-23T11:31:42.500Z,1.40
2022-11-23T11:34:22.433Z,1.30
2022-11-23T11:36:56.170Z,1.33
2022-11-23T11:39:30.036Z,1.40
2022-11-23T11:42:01.274Z,1.30
2022-11-23T11:44:31.853Z,1.40
2022-11-23T11:47:06.619Z,1.50
2022-11-23T11:49:37.938Z,1.23
2022-11-23T11:52:08.916Z,1.03
2022-11-23T11:54:44.198Z,1.60
2022-11-23T11:57:21.045Z,0.87
2022-11-23T11:59:50.435Z,1.50
2022-11-23T12:02:25.070Z,1.43
2022-11-23T12:05:04.682Z,1.37
2022-11-23T12:07:35.258Z,1.10
2022-11-23T12:10:10.488Z,1.33
2022-11-23T12:12:40.572Z,1.20
2022-11-23T12:15:47.380Z,1.50
2022-11-23T12:18:29.643Z,1.23
2022-11-23T12:21:02.867Z,1.50
2022-11-23T12:23:42.870Z,1.60
2022-11-23T12:26:21.744Z,1.40
2022-11-23T12:29:05.915Z,1.47
2022-11-23T12:31:42.150Z,1.33
2022-11-23T12:34:31.655Z,1.40
2022-11-23T12:37:24.918Z,1.30
2022-11-23T12:40:22.639Z,1.23
2022-11-23T12:42:54.944Z,1.23
2022-11-23T12:45:32.813Z,1.67
2022-11-23T12:48:18.588Z,1.03
2022-11-23T12:50:53.080Z,1.20
2022-11-23T12:53:34.069Z,1.43
2022-11-23T12:56:10.002Z,1.00
2022-11-23T12:58:39.464Z,1.37
2022-11-23T13:01:13.217Z,1.87
2022-11-23T13:04:10.958Z,1.10
2022-11-23T13:07:26.356Z,1.30
2022-11-23T13:09:57.694Z,1.10
2022-11-23T13:12:41.379Z,1.10
2022-11-23T13:15:25.075Z,1.20
2022-11-23T13:18:00.873Z,0.73
2022-11-23T13:20:41.895Z,1.00
2022-11-23T13:23:09.257Z,1.00
2022-11-23T13:25:36.436Z,0.70
2022-11-23T13:28:05.364Z,1.00
2022-11-23T13:30:52.338Z,1.00
2022-11-23T13:33:37.409Z,1.30
2022-11-23T13:36:12.534Z,1.10
2022-11-23T13:38:42.750Z,1.30
2022-11-23T13:41:52.375Z,0.90
2022-11-23T13:44:22.325Z,0.90
2022-11-23T13:47:19.393Z,1.63
2022-11-23T13:49:49.496Z,1.40
2022-11-23T13:52:31.169Z,1.13
2022-11-23T13:55:09.335Z,0.90
2022-11-23T13:57:37.920Z,1.00
2022-11-23T14:00:42.413Z,1.10
2022-11-23T14:03:48.003Z,1.70
2022-11-23T14:06:27.324Z,0.93
2022-11-23T14:09:01.854Z,1.20
2022-11-23T14:11:29.423Z,0.97
2022-11-23T14:14:00.790Z,0.90
2022-11-23T14:16:47.782Z,0.80
2022-11-23T14:19:24.722Z,1.00
2022-11-23T14:22:06.556Z,0.87
2022-11-23T14:24:55.717Z,1.30
2022-11-23T14:27:48.095Z,1.00
2022-11-23T14:30:37.428Z,1.53
2022-11-23T14:33:19.050Z,1.43
2022-11-23T14:35:54.111Z,1.10
2022-11-23T14:38:49.863Z,1.40
2022-11-23T14:41:19.685Z,1.50
2022-11-23T14:43:47.946Z,1.20
2022-11-23T14:46:16.872Z,1.40
2022-11-23T14:48:43.934Z,1.70
2022-11-23T14:51:14.609Z,0.77
2022-11-23T14:53:47.388Z,1.33
2022-11-23T14:56:25.746Z,1.17
2022-11-23T14:58:53.351Z,1.40
2022-11-23T15:01:22.933Z,1.30
2022-11-23T15:03:57.686Z,0.87
2022-11-23T15:06:29.298Z,1.07
2022-11-23T15:09:07.590Z,1.40
2022-11-23T15:11:37.555Z,1.03
2022-11-23T15:14:17.596Z,1.40
2022-11-23T15:16:44.746Z,1.37
2022-11-23T15:19:27.886Z,0.97
2022-11-23T15:21:55.258Z,1.10
2022-11-23T15:24:25.342Z,1.33
2022-11-23T15:26:53.063Z,0.97
2022-11-23T15:29:34.341Z,1.37
2022-11-23T15:32:29.201Z,1.33
2022-11-23T15:34:54.267Z,1.43
2022-11-23T15:37:22.720Z,1.80
2022-11-23T15:39:52.607Z,2.57
2022-11-23T15:42:22.349Z,1.60
2022-11-23T15:47:38.065Z,1.30
2022-11-23T15:50:09.972Z,1.27
2022-11-23T15:52:38.254Z,1.57
2022-11-23T15:54:53.485Z,1.50
2022-11-23T15:55:10.198Z,1.80
2022-11-23T15:57:39.432Z,1.93
2022-11-23T16:00:09.399Z,1.73
2022-11-23T16:02:37.000Z,1.73
2022-11-23T16:05:11.317Z,1.40
2022-11-23T16:07:50.588Z,1.40
2022-11-23T16:10:21.417Z,2.23
2022-11-23T16:12:49.998Z,1.50
2022-11-23T16:15:41.542Z,1.63
2022-11-23T16:18:20.472Z,1.77
2022-11-23T16:20:49.590Z,1.27
2022-11-23T16:23:19.823Z,1.87
2022-11-23T16:25:54.621Z,1.70
2022-11-23T16:28:27.700Z,1.70
2022-11-23T16:30:54.770Z,1.70
2022-11-23T16:33:21.805Z,1.70
2022-11-23T16:35:50.009Z,2.00
2022-11-23T16:38:17.124Z,1.87
2022-11-23T16:40:45.213Z,3.17
2022-11-23T16:43:14.249Z,1.97
2022-11-23T16:45:44.146Z,2.00
2022-11-23T16:48:37.776Z,2.07
2022-11-23T16:51:05.827Z,2.80
2022-11-23T16:53:53.408Z,2.10
2022-11-23T16:56:24.086Z,2.50
2022-11-23T16:58:52.982Z,2.17
2022-11-23T17:01:22.467Z,3.53
2022-11-23T17:03:50.078Z,3.70
2022-11-23T17:06:18.409Z,3.53
2022-11-23T17:08:46.243Z,3.27
2022-11-23T17:11:15.484Z,3.90
2022-11-23T17:13:42.841Z,2.97
2022-11-23T17:16:14.808Z,3.13
2022-11-23T17:18:41.954Z,3.53
2022-11-23T17:21:08.875Z,2.27
2022-11-23T17:23:35.899Z,2.67
2022-11-23T17:26:04.191Z,4.10
2022-11-23T17:28:31.546Z,3.80
2022-11-23T17:30:58.559Z,3.30
2022-11-23T17:33:27.249Z,3.43
2022-11-23T17:35:56.860Z,3.10
2022-11-23T17:38:26.167Z,3.10
2022-11-23T17:40:53.175Z,3.57
2022-11-23T17:43:20.593Z,2.10
2022-11-23T17:45:47.814Z,2.40
2022-11-23T17:48:16.250Z,3.00
2022-11-23T17:50:47.979Z,2.83
2022-11-23T17:53:15.018Z,2.97
2022-11-23T17:55:42.158Z,2.30
2022-11-23T17:58:10.983Z,2.70
2022-11-23T18:00:38.305Z,2.70
2022-11-23T18:03:05.218Z,2.47
2022-11-23T18:05:32.259Z,2.50
2022-11-23T18:08:00.822Z,2.37
2022-11-23T18:10:27.731Z,3.03
2022-11-23T18:12:55.096Z,2.43
2022-11-23T18:15:22.027Z,2.60
2022-11-23T18:17:48.851Z,2.30
2022-11-23T18:20:16.441Z,2.20
2022-11-23T18:22:43.333Z,2.00
2022-11-23T18:25:11.656Z,1.80
2022-11-23T18:27:41.600Z,2.17
2022-11-23T18:30:09.364Z,2.20
2022-11-23T18:32:36.357Z,1.97
2022-11-23T18:35:05.147Z,2.57
2022-11-23T18:37:32.086Z,1.57
2022-11-23T18:39:59.204Z,1.87
2022-11-23T18:42:27.634Z,1.50
2022-11-23T18:44:54.472Z,1.60
2022-11-23T18:47:21.413Z,1.40
2022-11-23T18:49:48.414Z,1.30
2022-11-23T18:52:17.170Z,1.70
2022-11-23T18:54:44.192Z,5.27
2022-11-23T18:57:12.855Z,2.13
2022-11-23T18:59:58.257Z,2.03
2022-11-23T19:02:25.482Z,1.57
2022-11-23T19:04:52.484Z,1.33
2022-11-23T19:07:25.152Z,1.67
2022-11-23T19:09:53.773Z,1.60
2022-11-23T19:12:20.775Z,1.80
2022-11-23T19:14:49.902Z,2.10
2022-11-23T19:17:17.586Z,1.73
2022-11-23T19:19:44.391Z,2.47
2022-11-23T19:22:11.329Z,2.30
2022-11-23T19:24:38.384Z,2.33
2022-11-23T19:27:05.401Z,1.70
2022-11-23T19:29:32.357Z,2.30
2022-11-23T19:32:00.697Z,2.30
2022-11-23T19:34:28.236Z,2.03
2022-11-23T19:36:55.226Z,2.23
2022-11-23T19:39:22.242Z,2.47
2022-11-23T19:41:49.149Z,2.30
2022-11-23T19:44:16.156Z,2.30
2022-11-23T19:46:43.106Z,2.80
2022-11-23T19:49:12.431Z,2.73
2022-11-23T19:51:39.386Z,3.30
2022-11-23T19:54:06.828Z,2.70
2022-11-23T19:56:34.018Z,2.77
2022-11-23T19:59:01.541Z,2.53
2022-11-23T20:01:31.856Z,2.90
2022-11-23T20:04:07.989Z,2.73
2022-11-23T20:06:39.080Z,2.53
2022-11-23T20:09:08.566Z,2.60
2022-11-23T20:11:37.034Z,2.70
2022-11-23T20:14:04.454Z,2.67
2022-11-23T20:16:32.575Z,2.83
2022-11-23T20:19:01.426Z,3.17
2022-11-23T20:21:29.594Z,2.87
2022-11-23T20:24:04.397Z,2.73
2022-11-23T20:26:32.837Z,2.80
2022-11-23T20:29:00.138Z,2.93
2022-11-23T20:31:29.672Z,3.07
2022-11-23T20:33:57.688Z,2.93
2022-11-23T20:36:25.883Z,2.57
2022-11-23T20:38:54.092Z,3.13
2022-11-23T20:41:26.213Z,3.17
2022-11-23T20:43:55.806Z,2.63
2022-11-23T20:46:45.729Z,2.77
2022-11-23T20:49:10.457Z,3.20
2022-11-23T20:51:37.946Z,2.90
2022-11-23T20:54:04.912Z,3.27
2022-11-23T20:56:33.333Z,2.70
2022-11-23T20:59:00.774Z,3.00
2022-11-23T21:01:28.632Z,2.90
2022-11-23T21:03:58.555Z,3.00
2022-11-23T21:06:26.663Z,3.83
2022-11-23T21:08:54.105Z,4.10
2022-11-23T21:11:42.425Z,4.20
2022-11-23T21:14:17.494Z,4.00
2022-11-23T21:16:53.490Z,4.00
2022-11-23T21:19:21.798Z,3.73
2022-11-23T21:21:48.981Z,3.93
2022-11-23T21:24:16.143Z,4.20
2022-11-23T21:26:43.220Z,3.87
2022-11-23T21:29:12.209Z,3.83
2022-11-23T21:31:40.569Z,3.83
2022-11-23T21:34:10.720Z,4.20
2022-11-23T21:36:39.171Z,4.63
2022-11-23T21:39:07.538Z,4.13
2022-11-23T21:41:34.542Z,4.70
2022-11-23T21:44:01.698Z,4.57
2022-11-23T21:46:30.428Z,4.60
2022-11-23T21:48:58.999Z,5.27
2022-11-23T21:51:28.543Z,4.30
2022-11-23T21:53:56.573Z,4.80
2022-11-23T21:56:24.154Z,4.93
2022-11-23T21:58:52.225Z,5.00
2022-11-23T22:01:21.176Z,4.70
2022-11-23T22:03:52.031Z,3.87
2022-11-23T22:06:20.807Z,4.77
2022-11-23T22:08:49.815Z,5.10
2022-11-23T22:11:18.487Z,4.40
2022-11-23T22:13:45.786Z,4.33
2022-11-23T22:16:15.487Z,5.20
2022-11-23T22:18:42.836Z,4.97
2022-11-23T22:21:11.194Z,4.37
2022-11-23T22:23:38.459Z,4.93
2022-11-23T22:26:08.677Z,5.37
2022-11-23T22:28:37.839Z,4.77
2022-11-23T22:31:05.296Z,5.27
2022-11-23T22:33:32.848Z,5.60
2022-11-23T22:36:02.096Z,5.67
2022-11-23T22:38:32.336Z,4.87
2022-11-23T22:40:59.708Z,4.73
2022-11-23T22:43:26.656Z,5.30
2022-11-23T22:45:53.630Z,5.43
2022-11-23T22:48:20.774Z,5.23
2022-11-23T22:50:56.330Z,5.23
2022-11-23T22:53:23.343Z,4.77
2022-11-23T22:55:52.086Z,5.03
2022-11-23T22:58:19.996Z,5.00
2022-11-23T23:00:47.561Z,4.57
2022-11-23T23:03:14.616Z,4.40
2022-11-23T23:05:41.501Z,4.73
2022-11-23T23:08:09.172Z,4.53
2022-11-23T23:10:36.430Z,4.80
2022-11-23T23:13:04.708Z,4.30
2022-11-23T23:15:32.354Z,5.33
2022-11-23T23:17:59.304Z,4.40
2022-11-23T23:20:26.133Z,5.00
2022-11-23T23:22:53.148Z,4.90
2022-11-23T23:25:20.430Z,5.37
2022-11-23T23:27:47.314Z,4.70
2022-11-23T23:30:16.035Z,5.00
2022-11-23T23:32:43.232Z,5.05
2022-11-23T23:35:10.421Z,4.57
2022-11-23T23:37:37.377Z,3.90
2022-11-23T23:40:05.657Z,3.80
2022-11-23T23:42:32.993Z,3.43
2022-11-23T23:44:59.825Z,4.27
2022-11-23T23:47:28.229Z,3.97
2022-11-23T23:49:55.096Z,3.23
2022-11-23T23:52:22.068Z,3.60
2022-11-23T23:54:48.927Z,3.60
2022-11-23T23:57:15.735Z,3.50
2022-11-23T23:59:42.686Z,4.23
